ココス (キーリング) 諸島 の空港の天気 - METARとTAF

ココス島国際空港 ( YPCC / CCK ) - ココス諸島 ココス (キーリング) 諸島
飛行場実況気象(Metar)
観測時間06/24 16:00 CCT (06/24 09:30 UTC)
風向・風速東 6m/s
視程10km以上
天気現象
全天の4割程度の雲 雲底高度 760m
気温29℃
湿度74%
気圧1011hPa
METARYPCC 240930Z AUTO 10011KT 9999 // SCT025 29/24 Q1011 RF00.0/000.0
過去の天気等 Google飛行場航空写真 Wunderground天気予報

過去48時間のMETAR

飛行場予報(TAF)
発表時間: 6/24 11:38 CCT (6/24 05:08 UTC)
予報対象時間: 24日12時 CCT ~ 25日12時 CCT
風向・風速東 7m/s
視程10km以上
天気現象弱いしゅう雨
全天の4割程度の雲 雲底高度 610m
全天の4割程度の雲 雲底高度 1220m
TAF YPCC 240508Z 2406/2506 09014KT 9999 -SHRA SCT020 SCT040 INTER 2412/2418 5000 SHRA BKN015 INTER 2500/2506 5000 SHRA BKN015